createdAt,value
2022-10-15T00:01:32.987Z,6.08
2022-10-15T00:04:37.787Z,5.35
2022-10-15T00:07:44.285Z,5.72
2022-10-15T00:10:49.752Z,6.00
2022-10-15T00:13:55.668Z,6.45
2022-10-15T00:17:01.946Z,6.12
2022-10-15T00:20:09.480Z,6.58
2022-10-15T00:23:14.929Z,5.87
2022-10-15T00:26:32.765Z,6.67
2022-10-15T00:29:39.498Z,6.58
2022-10-15T00:32:38.309Z,5.92
2022-10-15T00:35:43.375Z,6.20
2022-10-15T00:38:48.297Z,6.78
2022-10-15T00:41:59.419Z,6.72
2022-10-15T00:45:11.276Z,7.53
2022-10-15T00:48:17.167Z,5.40
2022-10-15T00:51:24.082Z,6.00
2022-10-15T00:54:23.353Z,6.85
2022-10-15T00:57:29.076Z,6.25
2022-10-15T01:00:35.299Z,5.60
2022-10-15T01:03:42.770Z,5.58
2022-10-15T01:06:49.321Z,6.20
2022-10-15T01:09:55.021Z,6.12
2022-10-15T01:13:42.331Z,6.00
2022-10-15T01:17:06.985Z,6.37
2022-10-15T01:21:01.079Z,5.95
2022-10-15T01:24:35.738Z,5.95
2022-10-15T01:27:55.151Z,6.03
2022-10-15T01:31:21.743Z,6.50
2022-10-15T01:34:40.631Z,5.85
2022-10-15T01:38:09.270Z,6.97
2022-10-15T01:41:19.694Z,6.80
2022-10-15T01:44:39.289Z,6.33
2022-10-15T01:48:02.903Z,6.40
2022-10-15T01:51:10.045Z,5.83
2022-10-15T01:54:15.865Z,5.72
2022-10-15T01:57:23.048Z,6.62
2022-10-15T02:00:28.962Z,6.20
2022-10-15T02:03:34.504Z,7.28
2022-10-15T02:06:49.497Z,7.80
2022-10-15T02:10:09.741Z,7.28
2022-10-15T02:13:28.086Z,6.87
2022-10-15T02:17:01.409Z,7.03
2022-10-15T02:20:27.193Z,7.37
2022-10-15T02:23:38.873Z,8.30
2022-10-15T02:26:45.139Z,7.00
2022-10-15T02:29:51.452Z,7.47
2022-10-15T02:33:00.529Z,6.22
2022-10-15T02:36:05.167Z,6.53
2022-10-15T02:39:11.733Z,7.87
2022-10-15T02:42:17.772Z,7.53
2022-10-15T02:45:24.183Z,7.50
2022-10-15T02:48:31.081Z,5.95
2022-10-15T02:51:36.017Z,7.65
2022-10-15T02:54:41.493Z,8.20
2022-10-15T02:57:48.720Z,6.80
2022-10-15T03:00:53.412Z,7.05
2022-10-15T03:04:00.864Z,6.55
2022-10-15T03:07:08.228Z,7.55
2022-10-15T03:10:14.773Z,7.12
2022-10-15T03:13:21.390Z,6.70
2022-10-15T03:16:27.977Z,7.08
2022-10-15T03:19:34.668Z,7.45
2022-10-15T03:22:40.837Z,7.33
2022-10-15T03:25:47.603Z,7.05
2022-10-15T03:28:52.867Z,7.47
2022-10-15T03:32:07.108Z,6.67
2022-10-15T03:35:12.885Z,6.92
2022-10-15T03:38:18.709Z,6.65
2022-10-15T03:41:25.234Z,7.65
2022-10-15T03:44:29.886Z,7.00
2022-10-15T03:47:41.041Z,6.35
2022-10-15T03:50:45.923Z,7.10
2022-10-15T03:53:51.670Z,6.40
2022-10-15T03:56:50.780Z,7.60
2022-10-15T03:59:59.206Z,6.58
2022-10-15T04:03:06.766Z,7.28
2022-10-15T04:06:13.592Z,7.20
2022-10-15T04:09:20.363Z,7.67
2022-10-15T04:12:28.629Z,6.83
2022-10-15T04:15:35.119Z,7.55
2022-10-15T04:18:42.718Z,6.22
2022-10-15T04:21:48.571Z,7.30
2022-10-15T04:24:56.589Z,7.40
2022-10-15T04:27:55.988Z,6.35
2022-10-15T04:31:02.754Z,7.20
2022-10-15T04:34:08.825Z,6.80
2022-10-15T04:37:13.604Z,7.03
2022-10-15T04:40:19.473Z,7.35
2022-10-15T04:43:25.015Z,7.20
2022-10-15T04:46:33.204Z,6.70
2022-10-15T04:49:43.082Z,6.22
2022-10-15T04:53:07.209Z,7.25
2022-10-15T04:56:23.845Z,6.30
2022-10-15T04:59:29.560Z,6.75
2022-10-15T05:02:57.452Z,6.33
2022-10-15T05:06:05.715Z,6.15
2022-10-15T05:09:14.674Z,6.45
2022-10-15T05:12:22.480Z,7.40
2022-10-15T05:15:30.746Z,6.10
2022-10-15T05:18:38.355Z,6.03
2022-10-15T05:21:44.739Z,5.30
2022-10-15T05:24:53.188Z,6.33
2022-10-15T05:28:03.191Z,5.08
2022-10-15T05:31:10.986Z,5.95
2022-10-15T05:34:22.133Z,6.65
2022-10-15T05:37:38.844Z,5.45
2022-10-15T05:40:45.617Z,5.47
2022-10-15T05:43:53.760Z,5.70
2022-10-15T05:47:01.788Z,6.20
2022-10-15T05:50:11.025Z,5.35
2022-10-15T05:53:18.658Z,6.53
2022-10-15T05:56:28.278Z,5.72
2022-10-15T05:59:34.746Z,5.80
2022-10-15T06:02:41.882Z,5.75
2022-10-15T06:05:47.953Z,5.17
2022-10-15T06:08:54.220Z,5.75
2022-10-15T06:12:01.120Z,6.12
2022-10-15T06:15:07.124Z,5.58
2022-10-15T06:18:12.693Z,6.28
2022-10-15T06:21:20.574Z,5.17
2022-10-15T06:24:26.287Z,5.10
2022-10-15T06:27:44.494Z,5.10
2022-10-15T06:30:52.143Z,5.33
2022-10-15T06:34:01.445Z,5.43
2022-10-15T06:37:07.371Z,5.28
2022-10-15T06:40:13.289Z,4.58
2022-10-15T06:43:21.961Z,5.08
2022-10-15T06:46:28.093Z,4.00
2022-10-15T06:49:34.568Z,4.40
2022-10-15T06:52:41.420Z,4.78
2022-10-15T06:55:46.801Z,5.30
2022-10-15T06:58:52.511Z,4.92
2022-10-15T07:01:58.084Z,4.10
2022-10-15T07:05:04.240Z,4.67
2022-10-15T07:08:11.025Z,4.28
2022-10-15T07:11:22.370Z,4.92
2022-10-15T07:14:28.324Z,4.78
2022-10-15T07:17:35.163Z,4.65
2022-10-15T07:20:41.654Z,4.90
2022-10-15T07:23:48.398Z,4.53
2022-10-15T07:26:54.710Z,4.75
2022-10-15T07:30:01.226Z,3.87
2022-10-15T07:33:07.416Z,3.87
2022-10-15T07:36:16.865Z,3.35
2022-10-15T07:39:26.271Z,4.62
2022-10-15T07:42:32.353Z,3.58
2022-10-15T07:45:38.075Z,3.27
2022-10-15T07:48:44.078Z,3.62
2022-10-15T07:51:49.922Z,3.30
2022-10-15T07:54:55.825Z,3.35
2022-10-15T07:58:03.002Z,3.05
2022-10-15T08:01:09.617Z,3.22
2022-10-15T08:04:15.481Z,3.65
2022-10-15T08:07:20.977Z,2.47
2022-10-15T08:10:28.130Z,2.33
2022-10-15T08:13:27.895Z,2.83
2022-10-15T08:16:22.276Z,2.22
2022-10-15T08:19:23.854Z,1.80
2022-10-15T08:22:29.512Z,1.72
2022-10-15T08:25:35.006Z,1.72
2022-10-15T08:28:41.236Z,2.45
2022-10-15T08:31:47.036Z,2.17
2022-10-15T08:34:54.991Z,1.95
2022-10-15T08:38:03.069Z,2.00
2022-10-15T08:41:13.508Z,1.80
2022-10-15T08:44:19.812Z,3.60
2022-10-15T08:47:39.537Z,1.87
2022-10-15T08:51:18.038Z,2.98
2022-10-15T08:54:28.516Z,2.00
2022-10-15T08:57:42.114Z,1.70
2022-10-15T09:01:07.520Z,2.08
2022-10-15T09:04:50.317Z,2.00
2022-10-15T09:08:02.030Z,2.15
2022-10-15T09:11:12.126Z,2.15
2022-10-15T09:14:17.144Z,2.02
2022-10-15T09:17:39.663Z,2.50
2022-10-15T09:20:49.105Z,2.30
2022-10-15T09:23:55.176Z,1.82
2022-10-15T09:27:31.890Z,2.08
2022-10-15T09:30:52.148Z,2.02
2022-10-15T09:34:08.782Z,2.72
2022-10-15T09:37:17.444Z,2.70
2022-10-15T09:40:50.114Z,2.20
2022-10-15T09:43:57.832Z,2.90
2022-10-15T09:47:05.421Z,2.58
2022-10-15T09:50:10.994Z,2.42
2022-10-15T09:53:52.456Z,2.00
2022-10-15T09:57:08.285Z,2.17
2022-10-15T10:00:15.676Z,1.98
2022-10-15T10:03:25.865Z,2.10
2022-10-15T10:06:31.894Z,2.42
2022-10-15T10:09:54.121Z,2.62
2022-10-15T10:13:00.901Z,2.00
2022-10-15T10:16:09.231Z,2.58
2022-10-15T10:19:28.359Z,1.98
2022-10-15T10:22:34.897Z,2.47
2022-10-15T10:25:48.727Z,2.35
2022-10-15T10:29:22.168Z,2.12
2022-10-15T10:32:35.372Z,2.33
2022-10-15T10:35:44.378Z,2.67
2022-10-15T10:38:52.692Z,2.30
2022-10-15T10:42:08.707Z,2.70
2022-10-15T10:45:38.630Z,2.60
2022-10-15T10:49:05.242Z,2.50
2022-10-15T10:52:11.421Z,2.65
2022-10-15T10:55:28.244Z,2.77
2022-10-15T10:58:36.666Z,2.47
2022-10-15T11:01:41.422Z,2.98
2022-10-15T11:04:49.083Z,2.98
2022-10-15T11:08:09.982Z,3.12
2022-10-15T11:11:36.374Z,3.12
2022-10-15T11:15:01.204Z,2.98
2022-10-15T11:18:37.986Z,2.33
2022-10-15T11:22:09.204Z,2.10
2022-10-15T11:25:35.657Z,2.30
2022-10-15T11:29:07.550Z,2.17
2022-10-15T11:32:26.060Z,2.22
2022-10-15T11:35:53.257Z,2.25
2022-10-15T11:39:21.013Z,2.00
2022-10-15T11:42:42.268Z,2.00
2022-10-15T11:46:13.096Z,2.30
2022-10-15T11:49:52.307Z,2.62
2022-10-15T11:56:28.265Z,1.90
2022-10-15T12:00:00.798Z,2.17
2022-10-15T12:03:10.585Z,2.33
2022-10-15T12:06:31.189Z,2.47
2022-10-15T12:09:45.644Z,2.67
2022-10-15T12:13:21.742Z,2.33
2022-10-15T12:17:11.619Z,3.33
2022-10-15T12:20:34.917Z,2.47
2022-10-15T12:23:56.450Z,2.95
2022-10-15T12:27:01.833Z,3.10
2022-10-15T12:30:18.699Z,3.17
2022-10-15T12:36:37.683Z,2.58
2022-10-15T12:39:58.742Z,2.80
2022-10-15T12:42:54.457Z,2.62
2022-10-15T12:46:13.080Z,2.80
2022-10-15T12:49:38.894Z,3.10
2022-10-15T12:53:43.048Z,2.70
2022-10-15T12:56:54.681Z,2.95
2022-10-15T13:00:05.482Z,2.85
2022-10-15T13:03:11.831Z,3.58
2022-10-15T13:06:41.621Z,2.98
2022-10-15T13:09:49.397Z,3.20
2022-10-15T13:12:57.400Z,2.50
2022-10-15T13:16:13.842Z,2.90
2022-10-15T13:19:19.385Z,2.83
2022-10-15T13:22:43.013Z,2.80
2022-10-15T13:25:49.561Z,2.60
2022-10-15T13:28:50.662Z,2.77
2022-10-15T13:31:56.832Z,2.70
2022-10-15T13:35:04.350Z,2.62
2022-10-15T13:38:12.762Z,2.42
2022-10-15T13:41:18.564Z,2.25
2022-10-15T13:44:36.596Z,2.52
2022-10-15T13:47:47.685Z,2.27
2022-10-15T13:50:54.448Z,2.37
2022-10-15T13:53:59.666Z,2.62
2022-10-15T13:57:05.450Z,2.95
2022-10-15T14:00:12.979Z,2.20
2022-10-15T14:03:35.604Z,2.50
2022-10-15T14:06:55.973Z,2.12
2022-10-15T14:10:00.573Z,2.08
2022-10-15T14:13:06.114Z,2.10
2022-10-15T14:16:35.223Z,2.25
2022-10-15T14:19:40.246Z,2.22
2022-10-15T14:22:46.743Z,2.02
2022-10-15T14:25:52.839Z,1.95
2022-10-15T14:29:03.206Z,2.27
2022-10-15T14:32:09.201Z,2.00
2022-10-15T14:35:16.831Z,1.67
2022-10-15T14:38:26.426Z,2.15
2022-10-15T14:41:42.974Z,2.33
2022-10-15T14:45:02.871Z,2.47
2022-10-15T14:48:17.453Z,2.08
2022-10-15T14:51:31.355Z,2.10
2022-10-15T14:54:40.189Z,2.10
2022-10-15T14:57:49.609Z,2.50
2022-10-15T15:01:00.404Z,1.87
2022-10-15T15:04:10.204Z,2.15
2022-10-15T15:07:16.685Z,1.82
2022-10-15T15:10:23.791Z,2.10
2022-10-15T15:13:34.092Z,2.22
2022-10-15T15:16:39.633Z,2.40
2022-10-15T15:19:44.313Z,1.80
2022-10-15T15:22:49.746Z,2.35
2022-10-15T15:25:58.071Z,2.60
2022-10-15T15:29:04.777Z,2.85
2022-10-15T15:32:10.642Z,3.17
2022-10-15T15:35:16.468Z,2.70
2022-10-15T15:38:22.035Z,2.77
2022-10-15T15:41:36.004Z,2.72
2022-10-15T15:44:42.175Z,3.60
2022-10-15T15:47:47.754Z,3.90
2022-10-15T15:50:53.597Z,3.15
2022-10-15T15:54:00.275Z,2.90
2022-10-15T15:57:07.732Z,2.72
2022-10-15T16:00:13.425Z,2.52
2022-10-15T16:03:19.427Z,2.37
2022-10-15T16:06:26.234Z,2.85
2022-10-15T16:09:33.301Z,2.95
2022-10-15T16:12:40.801Z,3.10
2022-10-15T16:15:47.695Z,2.87
2022-10-15T16:18:53.885Z,3.33
2022-10-15T16:22:00.704Z,3.20
2022-10-15T16:25:07.458Z,2.40
2022-10-15T16:28:14.102Z,2.75
2022-10-15T16:31:41.922Z,2.72
2022-10-15T16:34:48.304Z,3.00
2022-10-15T16:37:53.882Z,3.10
2022-10-15T16:41:01.350Z,3.02
2022-10-15T16:44:07.419Z,2.92
2022-10-15T16:47:15.638Z,3.85
2022-10-15T16:50:22.903Z,3.25
2022-10-15T16:53:29.803Z,3.50
2022-10-15T16:56:40.986Z,3.42
2022-10-15T16:59:47.350Z,3.62
2022-10-15T17:02:54.873Z,3.30
2022-10-15T17:06:00.585Z,4.15
2022-10-15T17:09:12.733Z,4.35
2022-10-15T17:15:23.510Z,4.28
2022-10-15T17:18:28.855Z,4.47
2022-10-15T17:21:36.340Z,4.40
2022-10-15T17:24:41.725Z,4.80
2022-10-15T17:27:42.695Z,4.53
2022-10-15T17:30:28.942Z,4.65
2022-10-15T17:33:21.874Z,4.25
2022-10-15T17:36:26.297Z,5.20
2022-10-15T17:39:35.094Z,4.28
2022-10-15T17:42:41.349Z,3.98
2022-10-15T17:45:40.548Z,4.05
2022-10-15T17:48:47.186Z,3.92
2022-10-15T17:51:52.922Z,4.72
2022-10-15T17:54:58.675Z,4.83
2022-10-15T17:58:04.304Z,4.25
2022-10-15T18:01:12.706Z,4.78
2022-10-15T18:04:19.271Z,5.15
2022-10-15T18:07:27.113Z,4.30
2022-10-15T18:10:33.272Z,4.97
2022-10-15T18:13:39.491Z,5.12
2022-10-15T18:16:46.724Z,4.85
2022-10-15T18:19:53.357Z,4.97
2022-10-15T18:22:58.907Z,4.78
2022-10-15T18:26:06.547Z,5.60
2022-10-15T18:29:12.326Z,6.53
2022-10-15T18:32:20.157Z,6.30
2022-10-15T18:35:25.922Z,6.30
2022-10-15T18:38:32.628Z,6.20
2022-10-15T18:44:49.795Z,6.10
2022-10-15T18:47:49.580Z,5.65
2022-10-15T18:50:43.621Z,5.90
2022-10-15T18:53:50.289Z,3.63
2022-10-15T18:56:56.560Z,5.47
2022-10-15T19:00:02.974Z,5.70
2022-10-15T19:03:09.281Z,5.72
2022-10-15T19:06:15.536Z,6.17
2022-10-15T19:09:24.566Z,6.40
2022-10-15T19:12:23.802Z,5.97
2022-10-15T19:15:25.171Z,5.53
2022-10-15T19:18:31.931Z,6.45
2022-10-15T19:21:38.021Z,5.75
2022-10-15T19:24:43.448Z,6.50
2022-10-15T19:27:49.584Z,5.58
2022-10-15T19:30:56.000Z,5.25
2022-10-15T19:34:04.759Z,6.33
2022-10-15T19:37:10.909Z,6.25
2022-10-15T19:40:18.867Z,6.15
2022-10-15T19:43:25.717Z,5.80
2022-10-15T19:46:31.760Z,6.40
2022-10-15T19:49:30.076Z,6.05
2022-10-15T19:52:22.784Z,5.62
2022-10-15T19:55:28.973Z,5.80
2022-10-15T19:58:35.314Z,5.55
2022-10-15T20:01:35.315Z,6.05
2022-10-15T20:04:22.044Z,5.90
2022-10-15T20:07:14.131Z,6.20
2022-10-15T20:10:06.402Z,7.03
2022-10-15T20:13:11.805Z,6.10
2022-10-15T20:16:24.841Z,6.37
2022-10-15T20:19:34.524Z,5.65
2022-10-15T20:22:40.910Z,5.53
2022-10-15T20:25:47.305Z,5.50
2022-10-15T20:28:58.894Z,6.53
2022-10-15T20:32:11.041Z,5.95
2022-10-15T20:35:10.875Z,6.08
2022-10-15T20:38:16.865Z,6.65
2022-10-15T20:41:28.666Z,6.37
2022-10-15T20:44:34.143Z,5.70
2022-10-15T20:47:39.574Z,5.92
2022-10-15T20:50:48.600Z,5.92
2022-10-15T20:53:54.953Z,5.75
2022-10-15T20:57:01.299Z,6.03
2022-10-15T21:00:06.890Z,6.05
2022-10-15T21:03:06.939Z,5.92
2022-10-15T21:06:14.862Z,5.10
2022-10-15T21:09:22.426Z,5.67
2022-10-15T21:12:28.512Z,5.70
2022-10-15T21:15:34.796Z,5.92
2022-10-15T21:18:41.750Z,5.65
2022-10-15T21:21:48.183Z,6.03
2022-10-15T21:24:54.763Z,6.03
2022-10-15T21:28:01.463Z,6.45
2022-10-15T21:31:07.983Z,6.33
2022-10-15T21:34:13.708Z,6.33
2022-10-15T21:37:20.153Z,6.60
2022-10-15T21:40:26.992Z,6.53
2022-10-15T21:43:33.151Z,6.45
2022-10-15T21:46:38.093Z,7.05
2022-10-15T21:49:43.407Z,6.75
2022-10-15T21:52:48.816Z,6.40
2022-10-15T21:55:54.336Z,6.58
2022-10-15T21:59:01.703Z,5.78
2022-10-15T22:02:07.616Z,6.92
2022-10-15T22:05:13.244Z,6.65
2022-10-15T22:08:19.558Z,6.28
2022-10-15T22:11:37.164Z,6.30
2022-10-15T22:14:43.683Z,5.70
2022-10-15T22:17:50.031Z,6.65
2022-10-15T22:20:55.951Z,7.40
2022-10-15T22:24:06.463Z,6.83
2022-10-15T22:27:12.640Z,6.95
2022-10-15T22:30:19.881Z,6.83
2022-10-15T22:33:25.776Z,7.92
2022-10-15T22:36:39.382Z,6.62
2022-10-15T22:39:46.437Z,7.25
2022-10-15T22:42:55.516Z,8.20
2022-10-15T22:46:01.167Z,7.60
2022-10-15T22:49:06.857Z,6.80
2022-10-15T22:52:14.003Z,6.83
2022-10-15T22:55:13.495Z,7.37
2022-10-15T22:57:59.772Z,6.95
2022-10-15T23:00:51.735Z,6.10
2022-10-15T23:03:45.370Z,7.33
2022-10-15T23:06:44.634Z,7.83
2022-10-15T23:09:51.252Z,8.08
2022-10-15T23:12:57.298Z,7.42
2022-10-15T23:16:02.615Z,7.58
2022-10-15T23:19:12.308Z,9.03
2022-10-15T23:22:18.969Z,7.33
2022-10-15T23:25:25.189Z,8.03
2022-10-15T23:28:32.018Z,7.50
2022-10-15T23:31:39.704Z,7.12
2022-10-15T23:34:45.341Z,7.45
2022-10-15T23:37:56.398Z,6.75
2022-10-15T23:41:02.587Z,7.90
2022-10-15T23:44:09.279Z,7.42
2022-10-15T23:47:15.416Z,7.47
2022-10-15T23:50:21.827Z,7.53
2022-10-15T23:53:27.726Z,7.05
2022-10-15T23:56:26.835Z,7.45
2022-10-15T23:59:33.096Z,7.17
